createdAt,value
2016-12-27T00:00:35.779Z,0
2016-12-27T00:01:44.980Z,0
2016-12-27T00:02:54.261Z,0
2016-12-27T00:04:03.156Z,0
2016-12-27T00:05:12.042Z,0
2016-12-27T00:06:20.928Z,0
2016-12-27T00:07:29.494Z,0
2016-12-27T00:08:38.412Z,0
2016-12-27T00:09:46.977Z,0
2016-12-27T00:10:55.545Z,0
2016-12-27T00:12:04.435Z,0
2016-12-27T00:13:13.640Z,0
2016-12-27T00:14:22.656Z,0
2016-12-27T00:15:31.539Z,0
2016-12-27T00:16:40.107Z,0
2016-12-27T00:17:48.996Z,0
2016-12-27T00:18:57.596Z,0
2016-12-27T00:20:06.324Z,0
2016-12-27T00:21:14.893Z,0
2016-12-27T00:22:23.779Z,0
2016-12-27T00:23:32.658Z,0
2016-12-27T00:24:41.543Z,0
2016-12-27T00:25:50.784Z,0
2016-12-27T00:26:59.668Z,0
2016-12-27T00:28:08.553Z,0
2016-12-27T00:29:17.440Z,0
2016-12-27T00:30:26.321Z,0
2016-12-27T00:31:35.557Z,0
2016-12-27T00:32:44.122Z,0
2016-12-27T00:33:53.328Z,0
2016-12-27T00:35:02.534Z,0
2016-12-27T00:36:11.421Z,0
2016-12-27T00:37:20.661Z,0
2016-12-27T00:38:29.545Z,0
2016-12-27T00:39:38.110Z,0
2016-12-27T00:40:47.312Z,0
2016-12-27T00:41:56.196Z,0
2016-12-27T00:43:05.117Z,0
2016-12-27T00:44:13.686Z,0
2016-12-27T00:45:22.892Z,0
2016-12-27T00:46:31.779Z,0
2016-12-27T00:47:41.015Z,0
2016-12-27T00:48:50.033Z,0
2016-12-27T00:49:59.250Z,0
2016-12-27T00:51:08.138Z,0
2016-12-27T00:52:16.708Z,0
2016-12-27T00:53:25.597Z,0
2016-12-27T00:54:34.514Z,0
2016-12-27T00:55:43.083Z,0
2016-12-27T00:56:52.289Z,0
2016-12-27T00:58:00.860Z,0
2016-12-27T00:59:09.746Z,0
2016-12-27T01:00:19.030Z,0
2016-12-27T01:01:27.601Z,0
2016-12-27T01:02:36.484Z,0
2016-12-27T01:03:45.057Z,0
2016-12-27T01:04:53.947Z,0
2016-12-27T01:06:02.676Z,0
2016-12-27T01:07:11.564Z,0
2016-12-27T01:08:20.451Z,0
2016-12-27T01:09:29.656Z,0
2016-12-27T01:10:38.542Z,0
2016-12-27T01:11:47.886Z,0
2016-12-27T01:12:56.453Z,0
2016-12-27T01:14:05.340Z,0
2016-12-27T01:15:13.905Z,0
2016-12-27T01:16:23.109Z,0
2016-12-27T01:17:32.305Z,0
2016-12-27T01:18:40.876Z,0
2016-12-27T01:19:49.441Z,0
2016-12-27T01:20:58.008Z,0
2016-12-27T01:22:06.893Z,0
2016-12-27T01:23:16.108Z,0
2016-12-27T01:24:24.676Z,0
2016-12-27T01:25:33.247Z,0
2016-12-27T01:26:41.821Z,0
2016-12-27T01:27:50.711Z,0
2016-12-27T01:28:59.899Z,0
2016-12-27T01:30:09.107Z,0
2016-12-27T01:31:17.997Z,0
2016-12-27T01:32:27.836Z,0
2016-12-27T01:33:36.409Z,0
2016-12-27T01:34:45.376Z,0
2016-12-27T01:35:54.579Z,0
2016-12-27T01:37:03.147Z,0
2016-12-27T01:38:11.715Z,0
2016-12-27T01:39:20.284Z,0
2016-12-27T01:40:29.892Z,0
2016-12-27T01:41:38.464Z,0
2016-12-27T01:42:47.352Z,0
2016-12-27T01:43:55.917Z,0
2016-12-27T01:45:04.487Z,0
2016-12-27T01:46:13.754Z,0
2016-12-27T01:47:22.637Z,0
2016-12-27T01:48:31.521Z,0
2016-12-27T01:49:40.093Z,0
2016-12-27T01:50:48.657Z,0
2016-12-27T01:51:57.596Z,0
2016-12-27T01:53:06.804Z,0
2016-12-27T01:54:15.372Z,0
2016-12-27T01:55:24.587Z,0
2016-12-27T01:56:33.490Z,0
2016-12-27T01:57:42.782Z,0
2016-12-27T01:58:51.352Z,0
2016-12-27T01:59:59.922Z,0
2016-12-27T02:01:08.489Z,0
2016-12-27T02:02:17.385Z,0
2016-12-27T02:03:26.726Z,0
2016-12-27T02:04:36.249Z,0
2016-12-27T02:05:45.137Z,0
2016-12-27T02:06:54.025Z,0
2016-12-27T02:08:02.601Z,0
2016-12-27T02:09:12.263Z,0
2016-12-27T02:10:20.831Z,0
2016-12-27T02:11:29.723Z,0
2016-12-27T02:12:38.612Z,0
2016-12-27T02:13:47.816Z,0
2016-12-27T02:14:56.783Z,0
2016-12-27T02:16:05.352Z,0
2016-12-27T02:17:13.951Z,0
2016-12-27T02:18:22.841Z,0
2016-12-27T02:19:37.678Z,0
2016-12-27T02:20:46.597Z,0
2016-12-27T02:21:55.171Z,0
2016-12-27T02:23:03.744Z,0
2016-12-27T02:24:12.633Z,0
2016-12-27T02:25:22.172Z,0
2016-12-27T02:26:31.684Z,0
2016-12-27T02:27:40.569Z,0
2016-12-27T02:28:49.459Z,0
2016-12-27T02:29:58.346Z,0
2016-12-27T02:31:06.916Z,0
2016-12-27T02:32:16.175Z,0
2016-12-27T02:33:25.061Z,0
2016-12-27T02:34:33.948Z,0
2016-12-27T02:35:42.835Z,0
2016-12-27T02:36:51.404Z,0
2016-12-27T02:38:01.068Z,0
2016-12-27T02:39:09.959Z,0
2016-12-27T02:40:18.530Z,0
2016-12-27T02:41:27.101Z,0
2016-12-27T02:42:35.669Z,0
2016-12-27T02:43:44.605Z,0
2016-12-27T02:44:53.176Z,0
2016-12-27T02:46:02.071Z,0
2016-12-27T02:47:10.962Z,0
2016-12-27T02:48:20.169Z,0
2016-12-27T02:49:29.108Z,0
2016-12-27T02:50:37.673Z,0
2016-12-27T02:51:46.243Z,0
2016-12-27T02:52:55.765Z,0
2016-12-27T02:54:04.972Z,0
2016-12-27T02:55:14.530Z,0
2016-12-27T02:56:23.098Z,0
2016-12-27T02:57:31.985Z,0
2016-12-27T02:58:40.876Z,0
2016-12-27T02:59:50.114Z,0
2016-12-27T03:00:59.109Z,0
2016-12-27T03:02:08.642Z,0
2016-12-27T03:03:17.211Z,0
2016-12-27T03:04:25.779Z,0
2016-12-27T03:05:34.668Z,0
2016-12-27T03:06:43.958Z,0
2016-12-27T03:07:52.524Z,0
2016-12-27T03:09:01.412Z,0
2016-12-27T03:10:09.986Z,0
2016-12-27T03:11:18.902Z,0
2016-12-27T03:12:27.923Z,0
2016-12-27T03:13:36.497Z,0
2016-12-27T03:14:45.705Z,0
2016-12-27T03:15:54.273Z,0
2016-12-27T03:17:03.481Z,0
2016-12-27T03:18:12.503Z,0
2016-12-27T03:19:21.397Z,0
2016-12-27T03:20:30.284Z,0
2016-12-27T03:21:39.488Z,0
2016-12-27T03:22:48.383Z,0
2016-12-27T03:23:57.941Z,0
2016-12-27T03:25:06.514Z,0
2016-12-27T03:26:15.397Z,0
2016-12-27T03:27:23.971Z,0
2016-12-27T03:28:32.863Z,0
2016-12-27T03:29:41.733Z,0
2016-12-27T03:30:50.622Z,0
2016-12-27T03:31:59.516Z,0
2016-12-27T03:33:08.091Z,0
2016-12-27T03:34:16.977Z,0
2016-12-27T03:35:25.995Z,0
2016-12-27T03:36:34.887Z,0
2016-12-27T03:37:43.780Z,0
2016-12-27T03:38:52.995Z,0
2016-12-27T03:40:01.566Z,0
2016-12-27T03:41:10.502Z,0
2016-12-27T03:42:19.072Z,0
2016-12-27T03:43:27.959Z,0
2016-12-27T03:44:37.799Z,0
2016-12-27T03:45:46.368Z,0
2016-12-27T03:46:55.925Z,0
2016-12-27T03:48:04.495Z,0
2016-12-27T03:49:13.384Z,0
2016-12-27T03:50:21.959Z,0
2016-12-27T03:51:30.525Z,0
2016-12-27T03:52:39.866Z,0
2016-12-27T03:53:48.759Z,0
2016-12-27T03:54:57.328Z,0
2016-12-27T03:56:06.217Z,0
2016-12-27T03:57:14.793Z,0
2016-12-27T03:58:23.411Z,0
2016-12-27T03:59:31.984Z,0
2016-12-27T04:00:40.871Z,0
2016-12-27T04:01:49.759Z,0
2016-12-27T04:02:58.351Z,0
2016-12-27T04:04:07.272Z,0
2016-12-27T04:05:15.841Z,0
2016-12-27T04:06:25.047Z,0
2016-12-27T04:07:33.941Z,0
2016-12-27T04:08:42.830Z,0
2016-12-27T04:09:52.072Z,0
2016-12-27T04:11:00.960Z,0
2016-12-27T04:12:09.854Z,0
2016-12-27T04:13:18.431Z,0
2016-12-27T04:14:27.320Z,0
2016-12-27T04:15:36.931Z,0
2016-12-27T04:16:45.824Z,0
2016-12-27T04:17:54.398Z,0
2016-12-27T04:19:02.996Z,0
2016-12-27T04:20:11.895Z,0
2016-12-27T04:21:20.819Z,0
2016-12-27T04:22:29.708Z,0
2016-12-27T04:23:38.598Z,0
2016-12-27T04:24:47.166Z,0
2016-12-27T04:25:55.739Z,0
2016-12-27T04:27:04.976Z,0
2016-12-27T04:28:13.548Z,0
2016-12-27T04:29:22.755Z,0
2016-12-27T04:30:31.329Z,0
2016-12-27T04:31:40.232Z,0
2016-12-27T04:32:49.504Z,0
2016-12-27T04:33:58.714Z,0
2016-12-27T04:35:07.604Z,0
2016-12-27T04:36:16.518Z,0
2016-12-27T04:37:25.416Z,0
2016-12-27T04:38:34.703Z,0
2016-12-27T04:39:43.303Z,0
2016-12-27T04:40:51.878Z,0
2016-12-27T04:42:00.443Z,0
2016-12-27T04:43:09.016Z,0
2016-12-27T04:44:17.936Z,0
2016-12-27T04:45:26.845Z,0
2016-12-27T04:46:35.415Z,0
2016-12-27T04:47:44.304Z,0
2016-12-27T04:48:52.876Z,0
2016-12-27T04:50:01.920Z,0
2016-12-27T04:51:11.157Z,0
2016-12-27T04:52:19.730Z,0
2016-12-27T04:53:28.302Z,0
2016-12-27T04:54:36.870Z,0
2016-12-27T04:55:45.808Z,0
2016-12-27T04:56:54.696Z,0
2016-12-27T04:58:03.910Z,0
2016-12-27T04:59:12.800Z,0
2016-12-27T05:00:21.373Z,0
2016-12-27T05:01:30.374Z,0
2016-12-27T05:02:39.264Z,0
2016-12-27T05:03:47.834Z,0
2016-12-27T05:04:56.721Z,0
2016-12-27T05:06:05.291Z,0
2016-12-27T05:07:14.231Z,0
2016-12-27T05:08:22.806Z,0
2016-12-27T05:09:31.374Z,0
2016-12-27T05:10:40.265Z,0
2016-12-27T05:11:49.155Z,0
2016-12-27T05:12:58.391Z,0
2016-12-27T05:14:06.963Z,0
2016-12-27T05:15:15.533Z,0
2016-12-27T05:16:24.102Z,0
2016-12-27T05:17:32.674Z,0
2016-12-27T05:18:41.543Z,0
2016-12-27T05:19:50.434Z,0
2016-12-27T05:20:59.360Z,0
2016-12-27T05:22:08.571Z,0
2016-12-27T05:23:17.460Z,0
2016-12-27T05:24:27.102Z,0
2016-12-27T05:25:36.311Z,0
2016-12-27T05:26:44.882Z,0
2016-12-27T05:27:53.463Z,0
2016-12-27T05:29:02.355Z,0
2016-12-27T05:30:11.646Z,0
2016-12-27T05:31:21.178Z,0
2016-12-27T05:32:29.754Z,0
2016-12-27T05:33:38.326Z,0
2016-12-27T05:34:46.895Z,0
2016-12-27T05:35:55.819Z,0
2016-12-27T05:37:04.393Z,0
2016-12-27T05:38:13.286Z,0
2016-12-27T05:39:22.203Z,0
2016-12-27T05:40:31.414Z,0
2016-12-27T05:41:40.384Z,0
2016-12-27T05:42:49.272Z,0
2016-12-27T05:43:57.849Z,0
2016-12-27T05:45:07.056Z,0
2016-12-27T05:46:15.627Z,0
2016-12-27T05:47:24.247Z,0
2016-12-27T05:48:33.159Z,0
2016-12-27T05:49:42.374Z,0
2016-12-27T05:50:51.261Z,0
2016-12-27T05:51:59.839Z,0
2016-12-27T05:53:09.445Z,0
2016-12-27T05:54:18.653Z,0
2016-12-27T05:55:27.541Z,0
2016-12-27T05:56:36.115Z,0
2016-12-27T05:57:44.692Z,0
2016-12-27T05:58:54.257Z,0
2016-12-27T06:00:03.471Z,0
2016-12-27T06:01:12.681Z,0
2016-12-27T06:02:21.252Z,0
2016-12-27T06:03:30.458Z,0
2016-12-27T06:04:39.399Z,0
2016-12-27T06:05:48.316Z,0
2016-12-27T06:06:56.882Z,0
2016-12-27T06:08:06.408Z,0
2016-12-27T06:09:15.300Z,0
2016-12-27T06:10:24.322Z,0
2016-12-27T06:11:33.564Z,0
2016-12-27T06:12:42.451Z,0
2016-12-27T06:13:51.339Z,0
2016-12-27T06:15:00.228Z,0
2016-12-27T06:16:09.416Z,0
2016-12-27T06:17:18.312Z,0
2016-12-27T06:18:27.550Z,0
2016-12-27T06:19:36.123Z,0
2016-12-27T06:20:44.691Z,0
2016-12-27T06:21:53.679Z,0
2016-12-27T06:23:02.894Z,0
2016-12-27T06:24:12.107Z,0
2016-12-27T06:25:20.674Z,0
2016-12-27T06:26:29.241Z,0
2016-12-27T06:27:38.167Z,0
2016-12-27T06:28:46.735Z,0
2016-12-27T06:29:55.941Z,0
2016-12-27T06:31:04.853Z,0
2016-12-27T06:32:13.740Z,0
2016-12-27T06:33:22.761Z,0
2016-12-27T06:34:31.969Z,0
2016-12-27T06:35:41.175Z,0
2016-12-27T06:36:49.752Z,0
2016-12-27T06:37:58.324Z,0
2016-12-27T06:39:06.947Z,0
2016-12-27T06:40:15.544Z,0
2016-12-27T06:41:24.426Z,0
2016-12-27T06:42:33.318Z,0
2016-12-27T06:43:42.211Z,0
2016-12-27T06:44:51.248Z,0
2016-12-27T06:45:59.822Z,0
2016-12-27T06:47:08.392Z,0
2016-12-27T06:48:16.990Z,0
2016-12-27T06:49:25.879Z,0
2016-12-27T06:50:35.122Z,0
2016-12-27T06:51:44.013Z,0
2016-12-27T06:52:52.583Z,0
2016-12-27T06:54:01.471Z,0
2016-12-27T06:55:10.041Z,0
2016-12-27T06:56:19.347Z,0
2016-12-27T06:57:28.557Z,0
2016-12-27T06:58:37.447Z,0
2016-12-27T06:59:46.015Z,0
2016-12-27T07:00:54.919Z,0
2016-12-27T07:02:04.114Z,0
2016-12-27T07:03:12.685Z,0
2016-12-27T07:04:21.260Z,0
2016-12-27T07:05:29.826Z,0
2016-12-27T07:06:38.394Z,0
2016-12-27T07:07:47.384Z,0
2016-12-27T07:08:56.593Z,0
2016-12-27T07:10:05.477Z,0
2016-12-27T07:11:14.045Z,0
2016-12-27T07:12:22.929Z,0
2016-12-27T07:13:32.186Z,0
2016-12-27T07:14:40.757Z,0
2016-12-27T07:15:49.653Z,0
2016-12-27T07:16:58.542Z,0
2016-12-27T07:18:07.119Z,0
2016-12-27T07:19:16.046Z,0
2016-12-27T07:20:24.949Z,0
2016-12-27T07:21:33.840Z,0
2016-12-27T07:22:42.416Z,0
2016-12-27T07:23:51.307Z,0
2016-12-27T07:25:00.566Z,5
2016-12-27T07:26:09.773Z,5
2016-12-27T07:27:18.342Z,5
2016-12-27T07:28:27.230Z,5
2016-12-27T07:29:35.798Z,5
2016-12-27T07:30:44.815Z,5
2016-12-27T07:31:53.705Z,5
2016-12-27T07:33:02.281Z,10
2016-12-27T07:34:11.804Z,10
2016-12-27T07:35:20.394Z,10
2016-12-27T07:36:29.336Z,10
2016-12-27T07:37:38.229Z,10
2016-12-27T07:38:46.798Z,10
2016-12-27T07:39:55.693Z,15
2016-12-27T07:41:04.902Z,15
2016-12-27T07:42:13.882Z,15
2016-12-27T07:43:22.768Z,15
2016-12-27T07:44:31.658Z,20
2016-12-27T07:45:40.227Z,20
2016-12-27T07:46:49.115Z,20
2016-12-27T07:47:57.981Z,25
2016-12-27T07:49:06.551Z,25
2016-12-27T07:50:15.448Z,30
2016-12-27T07:51:24.019Z,30
2016-12-27T07:52:32.589Z,35
2016-12-27T07:53:41.556Z,35
2016-12-27T07:54:50.443Z,40
2016-12-27T07:55:59.651Z,40
2016-12-27T07:57:09.177Z,45
2016-12-27T07:58:17.749Z,45
2016-12-27T07:59:26.470Z,50
2016-12-27T08:00:35.041Z,50
2016-12-27T08:01:43.613Z,55
2016-12-27T08:02:52.502Z,55
2016-12-27T08:04:01.391Z,55
2016-12-27T08:05:10.363Z,60
2016-12-27T08:06:19.265Z,65
2016-12-27T08:07:28.792Z,65
2016-12-27T08:08:37.681Z,70
2016-12-27T08:09:46.568Z,70
2016-12-27T08:10:55.598Z,75
2016-12-27T08:12:04.495Z,80
2016-12-27T08:13:13.384Z,85
2016-12-27T08:14:22.587Z,80
2016-12-27T08:15:31.161Z,85
2016-12-27T08:16:40.180Z,85
2016-12-27T08:17:48.760Z,85
2016-12-27T08:18:57.329Z,85
2016-12-27T08:20:05.898Z,90
2016-12-27T08:21:14.470Z,90
2016-12-27T08:22:23.389Z,90
2016-12-27T08:23:32.595Z,90
2016-12-27T08:24:41.485Z,90
2016-12-27T08:25:50.052Z,90
2016-12-27T08:26:58.942Z,90
2016-12-27T08:28:08.177Z,90
2016-12-27T08:29:16.748Z,90
2016-12-27T08:30:26.279Z,95
2016-12-27T08:31:35.164Z,95
2016-12-27T08:32:44.082Z,100
2016-12-27T08:33:53.375Z,105
2016-12-27T08:35:02.269Z,100
2016-12-27T08:36:11.162Z,105
2016-12-27T08:37:19.734Z,110
2016-12-27T08:38:28.303Z,110
2016-12-27T08:39:37.218Z,115
2016-12-27T08:40:46.117Z,120
2016-12-27T08:41:55.003Z,120
2016-12-27T08:43:03.573Z,120
2016-12-27T08:44:12.786Z,130
2016-12-27T08:45:22.039Z,130
2016-12-27T08:46:30.610Z,130
2016-12-27T08:47:39.822Z,135
2016-12-27T08:48:48.390Z,140
2016-12-27T08:49:57.277Z,145
2016-12-27T08:51:06.149Z,150
2016-12-27T08:52:15.040Z,155
2016-12-27T08:53:23.609Z,160
2016-12-27T08:54:32.181Z,160
2016-12-27T08:55:40.753Z,160
2016-12-27T08:56:49.794Z,165
2016-12-27T08:57:58.682Z,160
2016-12-27T08:59:07.258Z,160
2016-12-27T09:00:15.830Z,160
2016-12-27T09:01:24.720Z,165
2016-12-27T09:02:33.390Z,165
2016-12-27T09:03:42.280Z,185
2016-12-27T09:04:51.169Z,215
2016-12-27T09:06:00.057Z,205
2016-12-27T09:07:08.973Z,170
2016-12-27T09:08:17.893Z,155
2016-12-27T09:09:26.786Z,130
2016-12-27T09:10:35.358Z,165
2016-12-27T09:11:43.928Z,180
2016-12-27T09:12:52.500Z,165
2016-12-27T09:14:01.419Z,155
2016-12-27T09:15:10.654Z,165
2016-12-27T09:16:19.226Z,160
2016-12-27T09:17:27.811Z,170
2016-12-27T09:18:36.415Z,195
2016-12-27T09:19:45.656Z,210
2016-12-27T09:20:54.550Z,205
2016-12-27T09:22:03.441Z,210
2016-12-27T09:23:12.008Z,220
2016-12-27T09:24:20.581Z,220
2016-12-27T09:25:29.768Z,225
2016-12-27T09:26:38.343Z,230
2016-12-27T09:27:46.916Z,235
2016-12-27T09:28:55.485Z,240
2016-12-27T09:30:04.060Z,255
2016-12-27T09:31:12.994Z,260
2016-12-27T09:32:21.882Z,270
2016-12-27T09:33:31.088Z,270
2016-12-27T09:34:39.982Z,285
2016-12-27T09:35:48.873Z,290
2016-12-27T09:36:58.120Z,285
2016-12-27T09:38:07.013Z,280
2016-12-27T09:39:15.584Z,270
2016-12-27T09:40:24.478Z,275
2016-12-27T09:41:34.324Z,230
2016-12-27T09:42:43.566Z,195
2016-12-27T09:43:52.143Z,195
2016-12-27T09:45:00.714Z,175
2016-12-27T09:46:09.607Z,190
2016-12-27T09:47:18.530Z,235
2016-12-27T09:48:27.776Z,200
2016-12-27T09:49:36.344Z,225
2016-12-27T09:50:45.232Z,165
2016-12-27T09:51:53.799Z,145
2016-12-27T09:53:02.368Z,150
2016-12-27T09:54:11.628Z,155
2016-12-27T09:55:20.525Z,150
2016-12-27T09:56:29.412Z,205
2016-12-27T09:57:37.980Z,215
2016-12-27T09:58:46.552Z,215
2016-12-27T09:59:55.476Z,220
2016-12-27T10:01:04.062Z,225
2016-12-27T10:02:12.642Z,240
2016-12-27T10:03:21.557Z,255
2016-12-27T10:04:30.452Z,260
2016-12-27T10:05:39.374Z,265
2016-12-27T10:06:47.947Z,265
2016-12-27T10:07:56.524Z,270
2016-12-27T10:09:05.099Z,275
2016-12-27T10:10:13.672Z,275
2016-12-27T10:11:22.587Z,275
2016-12-27T10:12:31.474Z,280
2016-12-27T10:13:40.050Z,280
2016-12-27T10:14:48.626Z,285
2016-12-27T10:15:57.199Z,285
2016-12-27T10:17:06.117Z,285
2016-12-27T10:18:15.006Z,290
2016-12-27T10:19:23.900Z,290
2016-12-27T10:20:32.475Z,290
2016-12-27T10:21:41.698Z,295
2016-12-27T10:22:51.257Z,295
2016-12-27T10:24:00.478Z,295
2016-12-27T10:25:09.050Z,295
2016-12-27T10:26:18.260Z,295
2016-12-27T10:27:27.469Z,295
2016-12-27T10:28:36.395Z,295
2016-12-27T10:29:44.967Z,295
2016-12-27T10:30:54.180Z,295
2016-12-27T10:32:03.069Z,310
2016-12-27T10:33:11.643Z,355
2016-12-27T10:34:20.561Z,390
2016-12-27T10:35:29.451Z,370
2016-12-27T10:36:38.021Z,350
2016-12-27T10:37:46.595Z,250
2016-12-27T10:38:55.491Z,270
2016-12-27T10:40:04.764Z,255
2016-12-27T10:41:13.977Z,235
2016-12-27T10:42:22.867Z,225
2016-12-27T10:43:31.764Z,255
2016-12-27T10:44:40.653Z,250
2016-12-27T10:45:49.578Z,250
2016-12-27T10:46:58.149Z,235
2016-12-27T10:48:07.039Z,245
2016-12-27T10:49:15.928Z,245
2016-12-27T10:50:24.503Z,260
2016-12-27T10:51:33.443Z,245
2016-12-27T10:52:42.019Z,220
2016-12-27T10:53:50.938Z,270
2016-12-27T10:54:59.517Z,300
2016-12-27T10:56:08.122Z,305
2016-12-27T10:57:17.069Z,300
2016-12-27T10:58:25.962Z,305
2016-12-27T10:59:34.852Z,315
2016-12-27T11:00:43.424Z,300
2016-12-27T11:01:52.000Z,305
2016-12-27T11:03:01.245Z,310
2016-12-27T11:04:10.457Z,310
2016-12-27T11:05:19.344Z,285
2016-12-27T11:06:28.553Z,275
2016-12-27T11:07:37.127Z,270
2016-12-27T11:08:46.369Z,270
2016-12-27T11:09:54.940Z,315
2016-12-27T11:11:03.518Z,305
2016-12-27T11:12:13.046Z,285
2016-12-27T11:13:21.629Z,270
2016-12-27T11:14:30.569Z,250
2016-12-27T11:15:39.146Z,240
2016-12-27T11:16:48.037Z,250
2016-12-27T11:17:56.927Z,235
2016-12-27T11:19:05.499Z,210
2016-12-27T11:20:14.425Z,235
2016-12-27T11:21:23.003Z,235
2016-12-27T11:22:31.896Z,240
2016-12-27T11:23:40.790Z,250
2016-12-27T11:24:49.685Z,270
2016-12-27T11:25:58.559Z,300
2016-12-27T11:27:07.449Z,295
2016-12-27T11:28:16.051Z,300
2016-12-27T11:29:24.971Z,305
2016-12-27T11:30:34.184Z,320
2016-12-27T11:31:43.428Z,315
2016-12-27T11:32:52.036Z,310
2016-12-27T11:34:00.609Z,315
2016-12-27T11:35:09.191Z,310
2016-12-27T11:36:18.087Z,305
2016-12-27T11:37:27.332Z,310
2016-12-27T11:38:35.905Z,310
2016-12-27T11:39:44.477Z,305
2016-12-27T11:40:53.371Z,310
2016-12-27T11:42:02.590Z,310
2016-12-27T11:43:11.831Z,315
2016-12-27T11:44:20.728Z,300
2016-12-27T11:45:29.305Z,295
2016-12-27T11:46:37.879Z,275
2016-12-27T11:47:46.447Z,275
2016-12-27T11:48:55.371Z,285
2016-12-27T11:50:03.955Z,285
2016-12-27T11:51:12.847Z,295
2016-12-27T11:52:21.418Z,305
2016-12-27T11:53:30.307Z,285
2016-12-27T11:54:39.874Z,290
2016-12-27T11:55:49.753Z,290
2016-12-27T11:56:58.323Z,295
2016-12-27T11:58:06.896Z,295
2016-12-27T11:59:15.475Z,280
2016-12-27T12:00:24.742Z,290
2016-12-27T12:01:33.632Z,300
2016-12-27T12:02:42.526Z,295
2016-12-27T12:03:51.415Z,285
2016-12-27T12:04:59.993Z,300
2016-12-27T12:06:09.240Z,290
2016-12-27T12:07:18.158Z,315
2016-12-27T12:08:27.053Z,330
2016-12-27T12:09:35.633Z,320
2016-12-27T12:10:44.207Z,315
2016-12-27T12:11:53.132Z,300
2016-12-27T12:13:01.709Z,300
2016-12-27T12:14:10.286Z,300
2016-12-27T12:15:18.886Z,300
2016-12-27T12:16:27.775Z,295
2016-12-27T12:17:37.333Z,285
2016-12-27T12:18:46.235Z,270
2016-12-27T12:19:55.128Z,280
2016-12-27T12:21:04.019Z,290
2016-12-27T12:22:12.915Z,280
2016-12-27T12:23:22.474Z,270
2016-12-27T12:24:31.044Z,280
2016-12-27T12:25:39.624Z,260
2016-12-27T12:26:48.197Z,260
2016-12-27T12:27:57.089Z,270
2016-12-27T12:29:06.333Z,270
2016-12-27T12:30:14.909Z,260
2016-12-27T12:31:23.807Z,260
2016-12-27T12:32:32.703Z,245
2016-12-27T12:33:41.594Z,220
2016-12-27T12:34:50.525Z,215
2016-12-27T12:35:59.420Z,210
2016-12-27T12:37:08.314Z,215
2016-12-27T12:38:17.525Z,215
2016-12-27T12:39:26.094Z,195
2016-12-27T12:40:35.091Z,220
2016-12-27T12:41:43.664Z,240
2016-12-27T12:42:52.553Z,245
2016-12-27T12:44:01.123Z,230
2016-12-27T12:45:09.696Z,225
2016-12-27T12:46:18.621Z,215
2016-12-27T12:47:27.196Z,205
2016-12-27T12:48:35.768Z,190
2016-12-27T12:49:44.338Z,190
2016-12-27T12:50:52.911Z,195
2016-12-27T12:52:03.043Z,210
2016-12-27T12:53:11.612Z,200
2016-12-27T12:54:20.852Z,180
2016-12-27T12:55:29.451Z,155
2016-12-27T12:56:38.050Z,145
2016-12-27T12:57:47.369Z,140
2016-12-27T12:58:56.922Z,145
2016-12-27T13:00:05.809Z,140
2016-12-27T13:01:14.383Z,165
2016-12-27T13:02:23.278Z,155
2016-12-27T13:03:32.519Z,165
2016-12-27T13:04:41.095Z,160
2016-12-27T13:05:49.988Z,200
2016-12-27T13:06:59.207Z,215
2016-12-27T13:08:08.103Z,225
2016-12-27T13:09:17.026Z,215
2016-12-27T13:10:25.597Z,205
2016-12-27T13:11:34.172Z,200
2016-12-27T13:12:43.068Z,195
2016-12-27T13:13:51.959Z,185
2016-12-27T13:15:00.580Z,170
2016-12-27T13:16:09.479Z,140
2016-12-27T13:17:18.371Z,105
2016-12-27T13:18:27.259Z,95
2016-12-27T13:19:36.150Z,80
2016-12-27T13:20:45.399Z,70
2016-12-27T13:21:53.975Z,70
2016-12-27T13:23:02.869Z,65
2016-12-27T13:24:11.763Z,70
2016-12-27T13:25:20.336Z,105
2016-12-27T13:26:29.596Z,125
2016-12-27T13:27:38.486Z,120
2016-12-27T13:28:48.016Z,110
2016-12-27T13:29:57.225Z,115
2016-12-27T13:31:06.117Z,100
2016-12-27T13:32:15.094Z,95
2016-12-27T13:33:23.986Z,90
2016-12-27T13:34:32.876Z,80
2016-12-27T13:35:42.092Z,75
2016-12-27T13:36:50.994Z,80
2016-12-27T13:37:59.916Z,85
2016-12-27T13:39:08.814Z,95
2016-12-27T13:40:17.707Z,105
2016-12-27T13:41:26.274Z,105
2016-12-27T13:42:34.846Z,105
2016-12-27T13:43:44.088Z,105
2016-12-27T13:44:52.662Z,145
2016-12-27T13:46:01.237Z,180
2016-12-27T13:47:10.130Z,180
2016-12-27T13:48:19.023Z,180
2016-12-27T13:49:28.605Z,180
2016-12-27T13:50:37.175Z,190
2016-12-27T13:51:46.067Z,190
2016-12-27T13:52:54.642Z,180
2016-12-27T13:54:03.861Z,185
2016-12-27T13:55:12.785Z,205
2016-12-27T13:56:21.688Z,210
2016-12-27T13:57:30.591Z,195
2016-12-27T13:58:39.482Z,200
2016-12-27T13:59:48.372Z,215
2016-12-27T14:00:57.619Z,225
2016-12-27T14:02:06.200Z,220
2016-12-27T14:03:14.771Z,215
2016-12-27T14:04:23.667Z,215
2016-12-27T14:05:32.880Z,205
2016-12-27T14:06:41.818Z,205
2016-12-27T14:07:50.392Z,195
2016-12-27T14:08:59.925Z,185
2016-12-27T14:10:08.815Z,185
2016-12-27T14:11:18.054Z,185
2016-12-27T14:12:27.616Z,175
2016-12-27T14:13:36.512Z,170
2016-12-27T14:14:45.406Z,170
2016-12-27T14:15:54.312Z,175
2016-12-27T14:17:02.907Z,170
2016-12-27T14:18:11.830Z,170
2016-12-27T14:19:20.730Z,165
2016-12-27T14:20:29.623Z,160
2016-12-27T14:21:38.514Z,155
2016-12-27T14:22:47.405Z,155
2016-12-27T14:23:57.015Z,150
2016-12-27T14:25:05.586Z,150
2016-12-27T14:26:14.826Z,145
2016-12-27T14:27:23.717Z,145
2016-12-27T14:28:32.926Z,140
2016-12-27T14:29:42.274Z,140
2016-12-27T14:30:50.849Z,135
2016-12-27T14:32:00.064Z,130
2016-12-27T14:33:09.274Z,125
2016-12-27T14:34:18.165Z,120
2016-12-27T14:35:27.405Z,120
2016-12-27T14:36:35.977Z,115
2016-12-27T14:37:44.871Z,110
2016-12-27T14:38:53.442Z,105
2016-12-27T14:40:02.016Z,100
2016-12-27T14:41:10.645Z,95
2016-12-27T14:42:19.223Z,90
2016-12-27T14:43:28.113Z,85
2016-12-27T14:44:37.329Z,80
2016-12-27T14:45:45.905Z,80
2016-12-27T14:46:55.564Z,80
2016-12-27T14:48:04.464Z,75
2016-12-27T14:49:13.062Z,75
2016-12-27T14:50:21.952Z,70
2016-12-27T14:51:30.527Z,65
2016-12-27T14:52:40.190Z,65
2016-12-27T14:53:49.083Z,60
2016-12-27T14:54:58.294Z,60
2016-12-27T14:56:07.513Z,55
2016-12-27T14:57:17.043Z,50
2016-12-27T14:58:26.399Z,50
2016-12-27T14:59:35.288Z,45
2016-12-27T15:00:44.206Z,45
2016-12-27T15:01:53.096Z,40
2016-12-27T15:03:01.670Z,40
2016-12-27T15:04:10.910Z,40
2016-12-27T15:05:19.482Z,35
2016-12-27T15:06:28.370Z,35
2016-12-27T15:07:37.268Z,30
2016-12-27T15:08:46.480Z,25
2016-12-27T15:09:55.503Z,25
2016-12-27T15:11:04.393Z,20
2016-12-27T15:12:12.964Z,20
2016-12-27T15:13:21.538Z,20
2016-12-27T15:14:30.431Z,20
2016-12-27T15:15:39.402Z,20
2016-12-27T15:16:48.293Z,15
2016-12-27T15:17:57.189Z,15
2016-12-27T15:19:06.401Z,15
2016-12-27T15:20:14.972Z,15
2016-12-27T15:21:24.210Z,10
2016-12-27T15:22:32.780Z,10
2016-12-27T15:23:41.354Z,5
2016-12-27T15:24:49.927Z,5
2016-12-27T15:25:58.816Z,5
2016-12-27T15:27:07.743Z,5
2016-12-27T15:28:17.266Z,5
2016-12-27T15:29:26.157Z,5
2016-12-27T15:30:35.049Z,5
2016-12-27T15:31:43.936Z,0
2016-12-27T15:32:52.613Z,0
2016-12-27T15:34:01.187Z,0
2016-12-27T15:35:09.787Z,0
2016-12-27T15:36:18.677Z,0
2016-12-27T15:37:27.253Z,0
2016-12-27T15:38:36.497Z,0
2016-12-27T15:39:45.071Z,0
2016-12-27T15:40:53.645Z,0
2016-12-27T15:42:02.537Z,0
2016-12-27T15:43:11.432Z,0
2016-12-27T15:44:20.804Z,0
2016-12-27T15:45:29.697Z,0
2016-12-27T15:46:38.269Z,0
2016-12-27T15:47:46.842Z,0
2016-12-27T15:48:55.737Z,0
2016-12-27T15:50:04.980Z,0
2016-12-27T15:51:13.552Z,0
2016-12-27T15:52:22.121Z,0
2016-12-27T15:53:30.722Z,0
2016-12-27T15:54:39.292Z,0
2016-12-27T15:55:48.952Z,0
2016-12-27T15:56:57.532Z,0
2016-12-27T15:58:06.102Z,0
2016-12-27T15:59:14.993Z,0
2016-12-27T16:00:23.877Z,0
2016-12-27T16:01:33.117Z,0
2016-12-27T16:02:42.014Z,0
2016-12-27T16:03:51.224Z,0
2016-12-27T16:05:00.117Z,0
2016-12-27T16:06:09.010Z,0
2016-12-27T16:07:18.652Z,0
2016-12-27T16:08:27.867Z,0
2016-12-27T16:09:36.440Z,0
2016-12-27T16:10:45.654Z,0
2016-12-27T16:11:54.862Z,0
2016-12-27T16:13:03.783Z,0
2016-12-27T16:14:12.355Z,0
2016-12-27T16:15:21.245Z,0
2016-12-27T16:16:30.137Z,0
2016-12-27T16:17:38.708Z,0
2016-12-27T16:18:47.682Z,0
2016-12-27T16:19:56.895Z,0
2016-12-27T16:21:05.785Z,0
2016-12-27T16:22:14.677Z,0
2016-12-27T16:23:23.887Z,0
2016-12-27T16:24:32.605Z,0
2016-12-27T16:25:41.498Z,0
2016-12-27T16:26:50.070Z,0
2016-12-27T16:27:58.963Z,0